createdAt,value
2018-10-01T00:02:11.541Z,4.57
2018-10-01T00:04:41.193Z,3.67
2018-10-01T00:07:12.508Z,4.40
2018-10-01T00:09:42.797Z,4.47
2018-10-01T00:12:14.996Z,4.67
2018-10-01T00:14:45.613Z,4.20
2018-10-01T00:17:16.579Z,4.70
2018-10-01T00:19:51.355Z,4.23
2018-10-01T00:22:26.386Z,3.90
2018-10-01T00:24:56.109Z,4.00
2018-10-01T00:27:26.372Z,4.40
2018-10-01T00:29:57.512Z,4.37
2018-10-01T00:32:27.799Z,4.60
2018-10-01T00:34:57.870Z,5.07
2018-10-01T00:37:27.428Z,3.93
2018-10-01T00:39:56.972Z,4.40
2018-10-01T00:42:26.575Z,4.30
2018-10-01T00:44:56.215Z,4.60
2018-10-01T00:47:25.753Z,4.50
2018-10-01T00:49:55.373Z,4.80
2018-10-01T00:52:25.473Z,4.20
2018-10-01T00:54:55.026Z,4.83
2018-10-01T00:57:25.226Z,4.43
2018-10-01T00:59:55.360Z,4.20
2018-10-01T01:02:25.609Z,4.00
2018-10-01T01:04:55.131Z,4.33
2018-10-01T01:07:25.512Z,4.17
2018-10-01T01:09:55.041Z,4.57
2018-10-01T01:12:25.192Z,3.90
2018-10-01T01:14:56.107Z,4.50
2018-10-01T01:17:25.592Z,4.60
2018-10-01T01:19:55.811Z,3.93
2018-10-01T01:22:25.389Z,5.00
2018-10-01T01:24:56.250Z,4.03
2018-10-01T01:27:26.352Z,4.17
2018-10-01T01:29:55.950Z,4.50
2018-10-01T01:32:26.453Z,3.77
2018-10-01T01:34:57.799Z,4.70
2018-10-01T01:37:28.132Z,4.20
2018-10-01T01:39:58.838Z,5.20
2018-10-01T01:42:29.261Z,5.37
2018-10-01T01:44:59.851Z,4.47
2018-10-01T01:47:30.357Z,5.27
2018-10-01T01:50:00.044Z,4.23
2018-10-01T01:52:30.623Z,4.70
2018-10-01T01:55:01.563Z,4.53
2018-10-01T01:57:31.721Z,4.33
2018-10-01T02:00:02.613Z,4.40
2018-10-01T02:02:33.450Z,4.17
2018-10-01T02:05:04.075Z,5.13
2018-10-01T02:07:34.655Z,4.87
2018-10-01T02:10:04.360Z,5.00
2018-10-01T02:12:34.640Z,4.90
2018-10-01T02:15:06.843Z,4.53
2018-10-01T02:17:36.470Z,5.10
2018-10-01T02:20:08.368Z,4.80
2018-10-01T02:22:39.541Z,4.67
2018-10-01T02:25:09.681Z,5.17
2018-10-01T02:27:40.752Z,4.80
2018-10-01T02:30:10.605Z,4.47
2018-10-01T02:32:44.366Z,5.10
2018-10-01T02:35:15.216Z,4.57
2018-10-01T02:37:45.791Z,4.90
2018-10-01T02:40:16.720Z,4.37
2018-10-01T02:42:47.046Z,5.10
2018-10-01T02:45:17.823Z,4.30
2018-10-01T02:47:47.733Z,4.37
2018-10-01T02:50:19.300Z,5.10
2018-10-01T02:52:54.696Z,4.83
2018-10-01T02:55:25.849Z,4.87
2018-10-01T02:57:55.587Z,4.70
2018-10-01T03:00:25.245Z,5.20
2018-10-01T03:02:56.446Z,5.00
2018-10-01T03:05:26.820Z,5.40
2018-10-01T03:07:58.099Z,5.63
2018-10-01T03:10:27.814Z,4.90
2018-10-01T03:12:57.517Z,4.60
2018-10-01T03:15:27.858Z,4.97
2018-10-01T03:18:02.547Z,4.93
2018-10-01T03:20:32.811Z,5.10
2018-10-01T03:23:02.813Z,5.10
2018-10-01T03:25:33.738Z,5.70
2018-10-01T03:28:04.236Z,5.00
2018-10-01T03:30:39.549Z,4.80
2018-10-01T03:33:09.430Z,5.00
2018-10-01T03:35:40.880Z,5.20
2018-10-01T03:38:11.252Z,4.93
2018-10-01T03:40:41.390Z,5.10
2018-10-01T03:43:12.372Z,5.60
2018-10-01T03:45:42.732Z,5.40
2018-10-01T03:48:13.415Z,5.47
2018-10-01T03:50:44.497Z,5.73
2018-10-01T03:53:18.574Z,5.57
2018-10-01T03:55:49.470Z,5.93
2018-10-01T03:58:22.107Z,4.80
2018-10-01T04:00:51.922Z,5.17
2018-10-01T04:03:23.984Z,5.53
2018-10-01T04:05:54.466Z,6.27
2018-10-01T04:08:25.094Z,5.63
2018-10-01T04:10:56.474Z,6.17
2018-10-01T04:13:25.950Z,5.90
2018-10-01T04:15:56.548Z,6.70
2018-10-01T04:18:27.365Z,6.10
2018-10-01T04:20:57.894Z,7.30
2018-10-01T04:23:27.782Z,8.80
2018-10-01T04:25:58.882Z,6.70
2018-10-01T04:28:29.173Z,5.70
2018-10-01T04:30:59.541Z,6.10
2018-10-01T04:33:29.188Z,5.90
2018-10-01T04:35:59.104Z,6.23
2018-10-01T04:38:31.123Z,6.20
2018-10-01T04:41:02.682Z,5.80
2018-10-01T04:43:32.914Z,6.30
2018-10-01T04:46:07.965Z,5.53
2018-10-01T04:48:41.633Z,6.20
2018-10-01T04:51:11.381Z,6.43
2018-10-01T04:53:41.827Z,6.30
2018-10-01T04:56:14.153Z,5.90
2018-10-01T04:58:44.518Z,6.00
2018-10-01T05:01:15.253Z,6.50
2018-10-01T05:03:44.924Z,6.23
2018-10-01T05:06:20.193Z,5.93
2018-10-01T05:08:49.919Z,5.90
2018-10-01T05:11:20.140Z,6.20
2018-10-01T05:13:50.327Z,7.27
2018-10-01T05:16:19.874Z,6.67
2018-10-01T05:18:50.175Z,5.40
2018-10-01T05:21:20.495Z,6.37
2018-10-01T05:23:51.447Z,6.10
2018-10-01T05:26:21.872Z,6.43
2018-10-01T05:28:51.559Z,6.10
2018-10-01T05:31:21.375Z,6.40
2018-10-01T05:33:51.426Z,5.77
2018-10-01T05:36:21.556Z,6.33
2018-10-01T05:38:52.386Z,6.33
2018-10-01T05:41:22.927Z,6.03
2018-10-01T05:43:56.153Z,7.20
2018-10-01T05:46:26.028Z,5.73
2018-10-01T05:48:58.054Z,5.80
2018-10-01T05:51:28.383Z,6.47
2018-10-01T05:53:58.101Z,6.53
2018-10-01T05:56:28.699Z,6.27
2018-10-01T05:58:59.141Z,6.00
2018-10-01T06:01:29.422Z,6.30
2018-10-01T06:04:05.678Z,5.80
2018-10-01T06:06:36.282Z,6.37
2018-10-01T06:09:10.184Z,5.47
2018-10-01T06:11:41.492Z,5.30
2018-10-01T06:14:12.868Z,5.70
2018-10-01T06:16:49.218Z,6.40
2018-10-01T06:19:19.514Z,5.20
2018-10-01T06:21:49.155Z,6.13
2018-10-01T06:24:18.692Z,6.20
2018-10-01T06:26:49.584Z,5.70
2018-10-01T06:29:19.922Z,5.87
2018-10-01T06:31:50.292Z,5.87
2018-10-01T06:34:20.349Z,6.77
2018-10-01T06:36:49.807Z,6.17
2018-10-01T06:39:19.301Z,5.60
2018-10-01T06:41:49.682Z,6.40
2018-10-01T06:44:19.411Z,5.70
2018-10-01T06:46:49.572Z,6.40
2018-10-01T06:49:19.152Z,6.20
2018-10-01T06:51:49.160Z,5.90
2018-10-01T06:54:19.526Z,5.33
2018-10-01T06:56:50.167Z,6.03
2018-10-01T06:59:20.390Z,5.40
2018-10-01T07:01:50.361Z,6.83
2018-10-01T07:04:21.100Z,6.23
2018-10-01T07:06:51.873Z,6.43
2018-10-01T07:09:21.738Z,7.10
2018-10-01T07:11:56.997Z,6.33
2018-10-01T07:14:31.105Z,6.73
2018-10-01T07:17:03.339Z,6.30
2018-10-01T07:19:33.116Z,6.57
2018-10-01T07:22:03.995Z,6.47
2018-10-01T07:24:34.367Z,6.23
2018-10-01T07:27:04.536Z,6.27
2018-10-01T07:29:34.086Z,6.77
2018-10-01T07:32:06.187Z,7.27
2018-10-01T07:34:35.693Z,6.43
2018-10-01T07:37:06.680Z,6.90
2018-10-01T07:39:37.579Z,8.53
2018-10-01T07:42:08.609Z,8.20
2018-10-01T07:44:43.762Z,8.93
2018-10-01T07:47:13.899Z,8.00
2018-10-01T07:49:44.007Z,7.47
2018-10-01T07:52:18.289Z,6.37
2018-10-01T07:54:49.459Z,7.20
2018-10-01T07:57:19.303Z,7.13
2018-10-01T07:59:49.621Z,6.97
2018-10-01T08:02:19.701Z,6.77
2018-10-01T08:04:49.783Z,7.00
2018-10-01T08:07:20.461Z,6.70
2018-10-01T08:09:50.004Z,6.47
2018-10-01T08:12:20.305Z,7.50
2018-10-01T08:14:50.547Z,7.07
2018-10-01T08:17:21.394Z,7.40
2018-10-01T08:19:51.894Z,7.10
2018-10-01T08:22:21.547Z,6.70
2018-10-01T08:24:52.444Z,6.57
2018-10-01T08:27:23.181Z,6.47
2018-10-01T08:29:52.930Z,6.30
2018-10-01T08:32:25.756Z,5.93
2018-10-01T08:35:01.375Z,6.13
2018-10-01T08:37:31.094Z,6.80
2018-10-01T08:40:01.988Z,6.07
2018-10-01T08:42:32.789Z,7.17
2018-10-01T08:45:06.442Z,5.90
2018-10-01T08:47:37.128Z,6.70
2018-10-01T08:50:17.826Z,7.10
2018-10-01T08:53:04.594Z,10.50
2018-10-01T08:55:35.586Z,12.63
2018-10-01T08:58:06.129Z,9.30
2018-10-01T09:00:38.343Z,8.10
2018-10-01T09:03:08.594Z,7.13
2018-10-01T09:05:38.608Z,7.67
2018-10-01T09:08:08.398Z,6.13
2018-10-01T09:10:42.113Z,6.77
2018-10-01T09:13:12.009Z,6.53
2018-10-01T09:15:46.585Z,7.23
2018-10-01T09:18:16.690Z,7.07
2018-10-01T09:20:47.254Z,7.30
2018-10-01T09:23:23.647Z,6.63
2018-10-01T09:25:54.069Z,8.27
2018-10-01T09:28:24.345Z,14.80
2018-10-01T09:30:58.495Z,13.47
2018-10-01T09:33:28.863Z,10.30
2018-10-01T09:35:59.330Z,7.67
2018-10-01T09:38:28.962Z,9.70
2018-10-01T09:40:58.987Z,8.50
2018-10-01T09:43:28.490Z,7.20
2018-10-01T09:45:58.063Z,7.97
2018-10-01T09:48:27.507Z,7.00
2018-10-01T09:50:57.437Z,13.37
2018-10-01T09:53:33.657Z,19.63
2018-10-01T09:56:04.777Z,18.80
2018-10-01T09:58:36.325Z,13.47
2018-10-01T10:01:09.945Z,8.50
2018-10-01T10:03:40.133Z,7.37
2018-10-01T10:06:10.933Z,6.97
2018-10-01T10:08:43.833Z,7.97
2018-10-01T10:11:14.019Z,6.73
2018-10-01T10:13:43.693Z,7.30
2018-10-01T10:16:15.120Z,6.40
2018-10-01T10:18:45.190Z,5.83
2018-10-01T10:21:15.789Z,7.40
2018-10-01T10:23:46.705Z,6.70
2018-10-01T10:26:17.243Z,6.40
2018-10-01T10:28:52.128Z,5.90
2018-10-01T10:31:22.157Z,6.90
2018-10-01T10:33:52.008Z,7.50
2018-10-01T10:36:22.118Z,7.40
2018-10-01T10:38:52.416Z,5.90
2018-10-01T10:41:22.394Z,6.33
2018-10-01T10:43:52.789Z,7.00
2018-10-01T10:46:23.257Z,6.90
2018-10-01T10:48:53.749Z,5.90
2018-10-01T10:51:24.734Z,6.13
2018-10-01T10:53:54.666Z,7.17
2018-10-01T10:56:24.778Z,7.67
2018-10-01T10:58:54.581Z,8.17
2018-10-01T11:01:29.706Z,7.27
2018-10-01T11:04:00.098Z,6.90
2018-10-01T11:06:29.916Z,7.20
2018-10-01T11:08:59.480Z,8.17
2018-10-01T11:11:29.285Z,7.70
2018-10-01T11:13:58.831Z,8.10
2018-10-01T11:16:28.384Z,8.53
2018-10-01T11:18:58.024Z,10.10
2018-10-01T11:21:27.535Z,10.17
2018-10-01T11:23:57.974Z,7.53
2018-10-01T11:26:28.171Z,7.83
2018-10-01T11:28:58.432Z,7.50
2018-10-01T11:31:28.273Z,8.07
2018-10-01T11:34:03.498Z,7.57
2018-10-01T11:36:34.253Z,8.20
2018-10-01T11:39:06.461Z,7.77
2018-10-01T11:41:36.859Z,8.70
2018-10-01T11:44:07.322Z,9.20
2018-10-01T11:46:37.806Z,8.37
2018-10-01T11:49:07.965Z,8.10
2018-10-01T11:51:37.722Z,9.23
2018-10-01T11:54:07.268Z,9.30
2018-10-01T11:56:36.761Z,8.53
2018-10-01T11:59:06.308Z,8.17
2018-10-01T12:01:37.284Z,8.90
2018-10-01T12:04:07.652Z,8.90
2018-10-01T12:06:37.173Z,9.77
2018-10-01T12:09:09.562Z,8.80
2018-10-01T12:11:39.350Z,9.67
2018-10-01T12:14:11.761Z,9.00
2018-10-01T12:16:41.504Z,10.23
2018-10-01T12:19:12.670Z,9.20
2018-10-01T12:21:43.010Z,9.50
2018-10-01T12:24:13.986Z,10.27
2018-10-01T12:26:44.687Z,10.73
2018-10-01T12:29:15.320Z,10.13
2018-10-01T12:31:44.893Z,9.70
2018-10-01T12:34:16.436Z,9.47
2018-10-01T12:36:46.271Z,10.23
2018-10-01T12:39:17.116Z,10.87
2018-10-01T12:41:46.542Z,10.00
2018-10-01T12:44:16.462Z,10.53
2018-10-01T12:46:47.576Z,9.43
2018-10-01T12:49:17.527Z,8.80
2018-10-01T12:51:47.875Z,9.53
2018-10-01T12:54:17.735Z,8.50
2018-10-01T12:56:47.706Z,8.40
2018-10-01T12:59:18.051Z,9.10
2018-10-01T13:01:48.361Z,8.43
2018-10-01T13:04:19.156Z,8.20
2018-10-01T13:06:48.959Z,8.00
2018-10-01T13:09:20.349Z,9.03
2018-10-01T13:11:50.496Z,9.70
2018-10-01T13:14:21.710Z,10.50
2018-10-01T13:16:52.276Z,9.93
2018-10-01T13:19:23.386Z,10.13
2018-10-01T13:21:54.574Z,9.77
2018-10-01T13:24:26.646Z,9.60
2018-10-01T13:27:00.303Z,9.50
2018-10-01T13:29:30.063Z,10.23
2018-10-01T13:32:01.178Z,9.73
2018-10-01T13:34:32.443Z,9.37
2018-10-01T13:37:02.169Z,10.60
2018-10-01T13:39:32.440Z,11.10
2018-10-01T13:42:04.425Z,9.33
2018-10-01T13:44:35.301Z,9.43
2018-10-01T13:47:06.158Z,8.87
2018-10-01T13:49:35.754Z,8.93
2018-10-01T13:52:05.529Z,9.57
2018-10-01T13:54:35.501Z,9.33
2018-10-01T13:57:07.583Z,9.77
2018-10-01T13:59:41.573Z,9.23
2018-10-01T14:02:17.178Z,9.70
2018-10-01T14:04:46.892Z,10.10
2018-10-01T14:07:18.114Z,10.03
2018-10-01T14:09:48.622Z,11.50
2018-10-01T14:12:19.913Z,10.80
2018-10-01T14:14:50.058Z,11.67
2018-10-01T14:17:20.055Z,10.77
2018-10-01T14:19:50.682Z,11.50
2018-10-01T14:22:20.605Z,11.60
2018-10-01T14:24:51.374Z,11.50
2018-10-01T14:27:21.402Z,12.27
2018-10-01T14:29:53.881Z,11.33
2018-10-01T14:32:24.306Z,11.27
2018-10-01T14:34:55.470Z,12.40
2018-10-01T14:37:25.993Z,12.10
2018-10-01T14:39:55.675Z,11.40
2018-10-01T14:42:34.928Z,11.87
2018-10-01T14:45:06.500Z,11.57
2018-10-01T14:47:37.267Z,13.43
2018-10-01T14:50:08.153Z,12.77
2018-10-01T14:52:39.189Z,12.70
2018-10-01T14:55:10.245Z,12.77
2018-10-01T14:57:41.589Z,12.77
2018-10-01T15:00:11.891Z,13.00
2018-10-01T15:02:42.325Z,13.80
2018-10-01T15:05:14.357Z,13.50
2018-10-01T15:07:44.005Z,14.00
2018-10-01T15:10:15.221Z,21.90
2018-10-01T15:12:45.473Z,35.80
2018-10-01T15:15:19.225Z,19.93
2018-10-01T15:17:50.883Z,19.73
2018-10-01T15:20:20.603Z,16.60
2018-10-01T15:22:51.851Z,15.57
2018-10-01T15:25:22.640Z,16.07
2018-10-01T15:27:53.489Z,17.00
2018-10-01T15:30:23.215Z,19.90
2018-10-01T15:32:53.400Z,21.20
2018-10-01T15:35:24.198Z,18.23
2018-10-01T15:37:54.086Z,18.63
2018-10-01T15:40:26.273Z,18.87
2018-10-01T15:42:56.650Z,18.50
2018-10-01T15:45:26.394Z,19.40
2018-10-01T15:47:56.241Z,19.30
2018-10-01T15:50:26.075Z,19.73
2018-10-01T15:52:55.841Z,19.20
2018-10-01T15:55:31.813Z,19.13
2018-10-01T15:58:02.539Z,23.07
2018-10-01T16:00:33.333Z,21.20
2018-10-01T16:03:07.059Z,19.30
2018-10-01T16:05:37.363Z,18.60
2018-10-01T16:08:07.347Z,19.30
2018-10-01T16:10:43.017Z,19.97
2018-10-01T16:13:17.158Z,21.60
2018-10-01T16:15:47.085Z,21.17
2018-10-01T16:18:18.263Z,20.23
2018-10-01T16:20:47.843Z,19.87
2018-10-01T16:23:17.790Z,19.93
2018-10-01T16:25:47.486Z,21.73
2018-10-01T16:28:17.524Z,21.20
2018-10-01T16:30:48.272Z,21.17
2018-10-01T16:33:18.021Z,22.50
2018-10-01T16:35:52.104Z,21.23
2018-10-01T16:38:23.183Z,23.70
2018-10-01T16:40:53.944Z,22.10
2018-10-01T16:43:25.157Z,23.37
2018-10-01T16:45:55.813Z,24.40
2018-10-01T16:48:25.636Z,23.30
2018-10-01T16:50:56.507Z,25.03
2018-10-01T16:53:27.792Z,22.20
2018-10-01T16:55:58.175Z,22.23
2018-10-01T16:58:28.078Z,21.97
2018-10-01T17:00:58.631Z,23.23
2018-10-01T17:03:28.636Z,23.30
2018-10-01T17:06:02.319Z,22.83
2018-10-01T17:08:36.750Z,22.70
2018-10-01T17:11:07.789Z,21.70
2018-10-01T17:13:37.999Z,22.23
2018-10-01T17:16:08.065Z,23.33
2018-10-01T17:18:39.386Z,24.40
2018-10-01T17:21:10.204Z,22.70
2018-10-01T17:23:41.608Z,21.87
2018-10-01T17:26:12.810Z,21.57
2018-10-01T17:28:48.141Z,25.80
2018-10-01T17:31:18.193Z,25.20
2018-10-01T17:33:48.550Z,25.10
2018-10-01T17:36:18.620Z,26.97
2018-10-01T17:38:48.225Z,25.77
2018-10-01T17:41:18.470Z,25.87
2018-10-01T17:43:48.483Z,27.70
2018-10-01T17:46:17.977Z,27.60
2018-10-01T17:48:47.971Z,26.07
2018-10-01T17:51:17.799Z,27.90
2018-10-01T17:53:47.598Z,28.60
2018-10-01T17:56:17.408Z,28.20
2018-10-01T17:58:47.281Z,29.30
2018-10-01T18:01:18.593Z,30.33
2018-10-01T18:03:50.557Z,30.57
2018-10-01T18:06:20.094Z,28.40
2018-10-01T18:08:49.915Z,27.40
2018-10-01T18:11:19.472Z,26.60
2018-10-01T18:13:49.070Z,27.63
2018-10-01T18:16:18.800Z,27.30
2018-10-01T18:18:48.872Z,28.27
2018-10-01T18:21:19.647Z,27.60
2018-10-01T18:23:49.901Z,24.90
2018-10-01T18:26:20.083Z,26.83
2018-10-01T18:29:07.630Z,23.77
2018-10-01T18:31:37.676Z,25.20
2018-10-01T18:34:08.190Z,23.30
2018-10-01T18:36:40.217Z,24.20
2018-10-01T18:39:18.614Z,22.00
2018-10-01T18:41:49.296Z,22.70
2018-10-01T18:44:25.467Z,23.17
2018-10-01T18:46:56.522Z,21.57
2018-10-01T18:49:27.488Z,65.93
2018-10-01T18:51:57.339Z,23.20
2018-10-01T18:54:27.534Z,21.67
2018-10-01T18:56:57.218Z,22.30
2018-10-01T18:59:26.894Z,22.70
2018-10-01T19:01:56.677Z,24.70
2018-10-01T19:04:27.053Z,23.07
2018-10-01T19:06:57.233Z,23.83
2018-10-01T19:09:27.406Z,25.37
2018-10-01T19:11:57.632Z,24.60
2018-10-01T19:14:27.998Z,27.03
2018-10-01T19:16:57.919Z,25.00
2018-10-01T19:19:27.869Z,24.53
2018-10-01T19:21:57.710Z,25.30
2018-10-01T19:24:28.830Z,25.23
2018-10-01T19:26:59.273Z,24.00
2018-10-01T19:29:29.140Z,24.50
2018-10-01T19:31:59.332Z,22.53
2018-10-01T19:34:29.069Z,21.97
2018-10-01T19:37:00.212Z,18.53
2018-10-01T19:39:29.918Z,18.70
2018-10-01T19:42:00.724Z,17.37
2018-10-01T19:44:31.783Z,17.40
2018-10-01T19:47:03.234Z,16.70
2018-10-01T19:49:33.460Z,16.10
2018-10-01T19:52:03.797Z,16.37
2018-10-01T19:54:34.953Z,16.77
2018-10-01T19:57:05.668Z,15.73
2018-10-01T19:59:35.201Z,16.53
2018-10-01T20:02:06.031Z,17.27
2018-10-01T20:04:35.641Z,13.40
2018-10-01T20:07:05.726Z,15.17
2018-10-01T20:09:36.600Z,12.20
2018-10-01T20:12:06.932Z,13.07
2018-10-01T20:14:37.528Z,12.60
2018-10-01T20:17:07.397Z,13.33
2018-10-01T20:19:37.204Z,14.27
2018-10-01T20:22:10.036Z,18.63
2018-10-01T20:24:42.932Z,13.87
2018-10-01T20:27:13.909Z,14.57
2018-10-01T20:29:44.770Z,16.20
2018-10-01T20:32:19.480Z,13.07
2018-10-01T20:34:49.926Z,13.90
2018-10-01T20:37:21.329Z,13.43
2018-10-01T20:39:52.314Z,14.80
2018-10-01T20:42:22.913Z,15.17
2018-10-01T20:44:52.785Z,15.13
2018-10-01T20:47:24.585Z,15.17
2018-10-01T20:49:54.578Z,16.40
2018-10-01T20:52:25.270Z,16.80
2018-10-01T20:54:55.342Z,18.57
2018-10-01T20:57:31.017Z,18.57
2018-10-01T21:00:01.317Z,18.53
2018-10-01T21:02:31.426Z,18.23
2018-10-01T21:05:02.624Z,19.17
2018-10-01T21:07:32.309Z,17.20
2018-10-01T21:10:02.968Z,17.40
2018-10-01T21:12:32.646Z,17.70
2018-10-01T21:15:03.160Z,15.87
2018-10-01T21:17:33.627Z,14.30
2018-10-01T21:20:04.938Z,13.90
2018-10-01T21:22:36.192Z,14.10
2018-10-01T21:25:07.236Z,13.53
2018-10-01T21:27:37.613Z,13.03
2018-10-01T21:30:08.308Z,13.73
2018-10-01T21:32:39.527Z,12.73
2018-10-01T21:35:09.617Z,12.27
2018-10-01T21:37:40.030Z,12.50
2018-10-01T21:40:11.503Z,11.70
2018-10-01T21:42:42.622Z,12.90
2018-10-01T21:45:14.609Z,12.30
2018-10-01T21:47:45.242Z,12.77
2018-10-01T21:50:15.989Z,12.40
2018-10-01T21:52:46.109Z,13.20
2018-10-01T21:55:21.297Z,12.10
2018-10-01T21:57:56.941Z,13.27
2018-10-01T22:00:26.560Z,13.67
2018-10-01T22:02:56.874Z,13.57
2018-10-01T22:05:27.426Z,12.90
2018-10-01T22:07:57.197Z,13.77
2018-10-01T22:10:27.043Z,13.80
2018-10-01T22:12:56.611Z,13.10
2018-10-01T22:15:31.000Z,13.70
2018-10-01T22:18:01.582Z,13.60
2018-10-01T22:20:32.942Z,12.37
2018-10-01T22:23:03.241Z,13.43
2018-10-01T22:25:33.203Z,12.93
2018-10-01T22:28:03.117Z,13.80
2018-10-01T22:30:33.524Z,14.30
2018-10-01T22:33:05.166Z,13.50
2018-10-01T22:35:35.486Z,14.00
2018-10-01T22:38:06.076Z,14.27
2018-10-01T22:40:35.636Z,14.23
2018-10-01T22:43:05.302Z,14.40
2018-10-01T22:45:36.073Z,14.13
2018-10-01T22:48:06.457Z,14.10
2018-10-01T22:50:38.424Z,14.90
2018-10-01T22:53:09.736Z,14.00
2018-10-01T22:55:40.101Z,13.70
2018-10-01T22:58:11.476Z,14.17
2018-10-01T23:00:41.010Z,14.33
2018-10-01T23:03:11.201Z,14.60
2018-10-01T23:05:40.759Z,13.30
2018-10-01T23:08:10.454Z,14.27
2018-10-01T23:10:40.884Z,15.07
2018-10-01T23:13:11.089Z,13.93
2018-10-01T23:15:40.829Z,14.30
2018-10-01T23:18:10.456Z,14.63
2018-10-01T23:20:42.448Z,13.60
2018-10-01T23:23:16.370Z,13.20
2018-10-01T23:25:47.599Z,13.20
2018-10-01T23:28:17.190Z,12.80
2018-10-01T23:30:47.497Z,12.47
2018-10-01T23:33:17.427Z,12.37
2018-10-01T23:35:47.702Z,12.33
2018-10-01T23:38:17.686Z,12.00
2018-10-01T23:40:48.218Z,11.93
2018-10-01T23:43:18.846Z,11.67
2018-10-01T23:45:48.575Z,11.83
2018-10-01T23:48:18.279Z,12.67
2018-10-01T23:50:49.368Z,11.77
2018-10-01T23:53:19.401Z,12.00
2018-10-01T23:55:50.314Z,11.40
2018-10-01T23:58:19.811Z,11.57
